createdAt,value
2019-06-27T00:00:13.157Z,23.30
2019-06-27T00:02:42.198Z,23.27
2019-06-27T00:05:11.428Z,23.24
2019-06-27T00:07:40.544Z,23.11
2019-06-27T00:10:09.919Z,22.96
2019-06-27T00:12:38.953Z,23.00
2019-06-27T00:15:08.074Z,23.07
2019-06-27T00:17:37.113Z,23.10
2019-06-27T00:20:06.184Z,23.12
2019-06-27T00:22:35.296Z,23.14
2019-06-27T00:25:04.578Z,23.05
2019-06-27T00:30:01.719Z,22.93
2019-06-27T00:32:30.817Z,22.87
2019-06-27T00:34:59.815Z,22.83
2019-06-27T00:37:28.867Z,22.77
2019-06-27T00:40:01.545Z,22.75
2019-06-27T00:42:30.632Z,22.76
2019-06-27T00:44:59.675Z,22.79
2019-06-27T00:47:28.819Z,22.76
2019-06-27T00:49:57.866Z,22.70
2019-06-27T00:52:29.015Z,22.73
2019-06-27T00:54:58.054Z,22.64
2019-06-27T00:57:27.086Z,22.42
2019-06-27T00:59:56.174Z,22.38
2019-06-27T01:02:25.276Z,22.40
2019-06-27T01:04:54.319Z,22.42
2019-06-27T01:07:23.357Z,22.39
2019-06-27T01:09:52.416Z,22.37
2019-06-27T01:12:21.498Z,22.29
2019-06-27T01:14:50.527Z,22.11
2019-06-27T01:17:19.618Z,22.22
2019-06-27T01:19:48.991Z,22.36
2019-06-27T01:22:18.079Z,22.29
2019-06-27T01:24:47.144Z,22.23
2019-06-27T01:27:29.137Z,22.22
2019-06-27T01:29:46.993Z,22.20
2019-06-27T01:32:16.109Z,22.11
2019-06-27T01:34:45.167Z,22.08
2019-06-27T01:37:14.221Z,22.06
2019-06-27T01:39:43.345Z,21.96
2019-06-27T01:42:12.418Z,21.94
2019-06-27T01:44:55.174Z,21.93
2019-06-27T01:47:24.290Z,21.89
2019-06-27T01:49:53.313Z,21.89
2019-06-27T01:52:23.938Z,21.93
2019-06-27T01:54:53.016Z,21.90
2019-06-27T01:57:22.097Z,21.90
2019-06-27T01:59:51.147Z,21.95
2019-06-27T02:02:20.245Z,21.99
2019-06-27T02:04:49.295Z,21.92
2019-06-27T02:07:19.524Z,21.89
2019-06-27T02:09:48.605Z,21.78
2019-06-27T02:12:17.664Z,21.71
2019-06-27T02:14:46.742Z,21.69
2019-06-27T02:17:15.854Z,21.62
2019-06-27T02:19:44.910Z,21.60
2019-06-27T02:22:13.958Z,21.59
2019-06-27T02:24:43.166Z,21.60
2019-06-27T02:27:12.222Z,21.55
2019-06-27T02:29:41.248Z,21.58
2019-06-27T02:32:10.301Z,21.62
2019-06-27T02:34:39.380Z,21.61
2019-06-27T02:37:08.391Z,21.52
2019-06-27T02:39:37.458Z,21.47
2019-06-27T02:42:08.781Z,21.48
2019-06-27T02:44:37.881Z,21.48
2019-06-27T02:47:06.925Z,21.50
2019-06-27T02:49:36.027Z,21.40
2019-06-27T02:52:05.094Z,21.49
2019-06-27T02:54:34.148Z,21.58
2019-06-27T02:57:03.181Z,21.54
2019-06-27T02:59:32.279Z,21.39
2019-06-27T03:02:01.351Z,21.26
2019-06-27T03:04:30.394Z,21.26
2019-06-27T03:06:59.427Z,21.32
2019-06-27T03:09:28.483Z,21.37
2019-06-27T03:12:00.281Z,21.35
2019-06-27T03:14:28.433Z,21.32
2019-06-27T03:16:57.469Z,21.30
2019-06-27T03:19:26.553Z,21.24
2019-06-27T03:21:55.570Z,21.13
2019-06-27T03:24:24.689Z,21.15
2019-06-27T03:26:53.715Z,19.55
2019-06-27T03:29:22.790Z,21.15
2019-06-27T03:31:51.840Z,21.15
2019-06-27T03:34:20.893Z,21.16
2019-06-27T03:36:49.935Z,21.17
2019-06-27T03:39:19.040Z,21.12
2019-06-27T03:41:49.137Z,21.07
2019-06-27T03:44:18.293Z,21.00
2019-06-27T03:46:47.350Z,21.12
2019-06-27T03:49:16.462Z,21.17
2019-06-27T03:51:45.457Z,21.28
2019-06-27T03:54:14.528Z,21.43
2019-06-27T03:56:43.610Z,21.31
2019-06-27T03:59:13.985Z,21.26
2019-06-27T04:01:45.568Z,21.31
2019-06-27T04:04:14.656Z,21.39
2019-06-27T04:06:43.743Z,21.49
2019-06-27T04:09:14.600Z,21.50
2019-06-27T04:11:43.694Z,21.46
2019-06-27T04:14:12.717Z,21.49
2019-06-27T04:16:41.917Z,21.51
2019-06-27T04:19:13.328Z,21.55
2019-06-27T04:21:42.456Z,21.44
2019-06-27T04:24:11.573Z,21.62
2019-06-27T04:26:40.795Z,21.77
2019-06-27T04:29:09.855Z,21.98
2019-06-27T04:31:38.893Z,22.21
2019-06-27T04:34:07.971Z,22.11
2019-06-27T04:36:37.058Z,22.34
2019-06-27T04:39:06.440Z,22.54
2019-06-27T04:41:35.517Z,22.69
2019-06-27T04:44:04.606Z,22.91
2019-06-27T04:46:33.715Z,23.11
2019-06-27T04:49:02.749Z,23.01
2019-06-27T04:51:31.802Z,23.33
2019-06-27T04:54:00.844Z,23.66
2019-06-27T04:56:29.925Z,23.68
2019-06-27T04:58:58.989Z,23.79
2019-06-27T05:01:28.040Z,23.86
2019-06-27T05:03:57.106Z,24.24
2019-06-27T05:06:26.150Z,24.20
2019-06-27T05:08:55.200Z,23.84
2019-06-27T05:11:24.273Z,24.16
2019-06-27T05:13:53.368Z,24.18
2019-06-27T05:16:22.401Z,24.25
2019-06-27T05:18:51.415Z,24.56
2019-06-27T05:21:20.493Z,24.19
2019-06-27T05:23:50.378Z,25.02
2019-06-27T05:26:19.453Z,24.77
2019-06-27T05:28:48.484Z,25.46
2019-06-27T05:31:17.565Z,25.02
2019-06-27T05:33:46.583Z,25.35
2019-06-27T05:36:15.687Z,25.09
2019-06-27T05:38:44.658Z,25.28
2019-06-27T05:41:13.746Z,24.29
2019-06-27T05:43:42.740Z,24.29
2019-06-27T05:46:11.842Z,24.38
2019-06-27T05:48:40.925Z,24.78
2019-06-27T05:51:09.923Z,25.24
2019-06-27T05:53:38.943Z,25.02
2019-06-27T05:56:11.120Z,25.29
2019-06-27T05:58:40.146Z,25.09
2019-06-27T06:01:09.209Z,25.11
2019-06-27T06:03:38.264Z,26.01
2019-06-27T06:06:07.287Z,25.69
2019-06-27T06:08:36.429Z,25.99
2019-06-27T06:11:05.434Z,25.98
2019-06-27T06:13:34.547Z,25.36
2019-06-27T06:16:03.600Z,26.26
2019-06-27T06:18:32.644Z,26.65
2019-06-27T06:21:01.657Z,27.86
2019-06-27T06:23:30.671Z,27.35
2019-06-27T06:25:59.702Z,27.26
2019-06-27T06:28:28.715Z,27.59
2019-06-27T06:30:57.786Z,28.35
2019-06-27T06:33:26.802Z,28.67
2019-06-27T06:35:55.895Z,28.19
2019-06-27T06:38:25.003Z,28.25
2019-06-27T06:40:54.046Z,27.61
2019-06-27T06:43:23.157Z,28.32
2019-06-27T06:45:53.738Z,28.69
2019-06-27T06:48:22.805Z,27.54
2019-06-27T06:50:51.859Z,29.13
2019-06-27T06:53:20.879Z,28.96
2019-06-27T06:55:49.852Z,29.31
2019-06-27T06:58:18.929Z,28.54
2019-06-27T07:01:01.090Z,28.60
2019-06-27T07:03:18.692Z,28.60
2019-06-27T07:05:47.737Z,29.30
2019-06-27T07:08:16.828Z,29.71
2019-06-27T07:10:46.019Z,29.30
2019-06-27T07:13:15.076Z,29.51
2019-06-27T07:15:44.113Z,30.08
2019-06-27T07:18:13.254Z,30.30
2019-06-27T07:20:42.371Z,30.76
2019-06-27T07:23:11.426Z,29.65
2019-06-27T07:25:40.487Z,29.33
2019-06-27T07:28:09.554Z,31.05
2019-06-27T07:30:38.606Z,31.21
2019-06-27T07:33:10.203Z,30.89
2019-06-27T07:35:43.566Z,30.81
2019-06-27T07:38:12.654Z,31.10
2019-06-27T07:40:42.806Z,30.49
2019-06-27T07:43:11.921Z,31.30
2019-06-27T07:45:40.977Z,31.04
2019-06-27T07:48:12.339Z,30.06
2019-06-27T07:50:41.357Z,29.60
2019-06-27T07:53:14.173Z,29.53
2019-06-27T07:55:44.935Z,31.16
2019-06-27T07:58:13.999Z,30.17
2019-06-27T08:00:44.937Z,30.57
2019-06-27T08:03:17.730Z,30.91
2019-06-27T08:05:46.846Z,32.13
2019-06-27T08:08:15.930Z,31.74
2019-06-27T08:10:46.488Z,31.94
2019-06-27T08:13:15.648Z,32.47
2019-06-27T08:15:44.694Z,32.01
2019-06-27T08:18:13.896Z,31.14
2019-06-27T08:20:43.023Z,30.99
2019-06-27T08:23:12.036Z,31.60
2019-06-27T08:25:41.062Z,30.80
2019-06-27T08:28:10.062Z,30.40
2019-06-27T08:30:39.089Z,29.73
2019-06-27T08:33:08.278Z,29.20
2019-06-27T08:35:37.346Z,29.62
2019-06-27T08:38:08.255Z,30.14
2019-06-27T08:40:37.382Z,30.52
2019-06-27T08:43:07.219Z,30.66
2019-06-27T08:45:36.356Z,31.38
2019-06-27T08:48:05.720Z,29.63
2019-06-27T08:50:35.039Z,30.11
2019-06-27T08:53:04.092Z,29.73
2019-06-27T08:58:07.255Z,30.72
2019-06-27T09:00:37.522Z,31.79
2019-06-27T09:03:06.655Z,32.25
2019-06-27T09:05:37.893Z,32.52
2019-06-27T09:08:10.832Z,32.66
2019-06-27T09:10:41.023Z,33.14
2019-06-27T09:13:10.638Z,32.57
2019-06-27T09:15:39.735Z,33.44
2019-06-27T09:18:09.569Z,33.31
2019-06-27T09:20:39.478Z,32.50
2019-06-27T09:23:08.518Z,32.09
2019-06-27T09:25:37.601Z,33.37
2019-06-27T09:28:06.668Z,33.75
2019-06-27T09:30:35.766Z,33.72
2019-06-27T09:33:04.801Z,34.51
2019-06-27T09:35:35.886Z,34.00
2019-06-27T09:38:06.926Z,34.05
2019-06-27T09:40:37.367Z,34.27
2019-06-27T09:43:06.448Z,34.03
2019-06-27T09:45:35.786Z,35.08
2019-06-27T09:48:04.815Z,33.43
2019-06-27T09:50:34.971Z,34.15
2019-06-27T09:53:04.044Z,32.84
2019-06-27T09:55:33.143Z,34.08
2019-06-27T09:58:02.187Z,34.48
2019-06-27T10:00:31.257Z,33.17
2019-06-27T10:03:00.268Z,34.03
2019-06-27T10:05:31.667Z,34.89
2019-06-27T10:08:00.745Z,34.63
2019-06-27T10:10:29.808Z,34.67
2019-06-27T10:12:58.840Z,34.40
2019-06-27T10:15:28.189Z,33.86
2019-06-27T10:17:57.270Z,35.34
2019-06-27T10:20:26.312Z,35.21
2019-06-27T10:22:55.325Z,35.29
2019-06-27T10:25:24.378Z,35.09
2019-06-27T10:27:54.024Z,34.89
2019-06-27T10:30:23.097Z,34.04
2019-06-27T10:32:59.240Z,34.75
2019-06-27T10:35:22.979Z,32.61
2019-06-27T10:37:52.065Z,34.30
2019-06-27T10:40:21.104Z,33.13
2019-06-27T10:42:50.146Z,33.95
2019-06-27T10:45:20.783Z,34.59
2019-06-27T10:47:49.896Z,34.88
2019-06-27T10:50:18.973Z,34.30
2019-06-27T10:52:48.092Z,34.66
2019-06-27T10:55:17.487Z,35.29
2019-06-27T10:57:46.538Z,35.27
2019-06-27T11:00:16.121Z,33.47
2019-06-27T11:02:45.193Z,34.34
2019-06-27T11:05:14.304Z,35.10
2019-06-27T11:07:43.350Z,35.54
2019-06-27T11:10:12.420Z,34.42
2019-06-27T11:12:44.874Z,34.49
2019-06-27T11:15:13.334Z,35.57
2019-06-27T11:17:42.417Z,35.44
2019-06-27T11:20:15.464Z,35.77
2019-06-27T11:22:44.805Z,34.82
2019-06-27T11:25:15.122Z,35.04
2019-06-27T11:27:44.145Z,34.08
2019-06-27T11:30:13.193Z,33.51
2019-06-27T11:32:42.267Z,34.79
2019-06-27T11:35:11.409Z,34.85
2019-06-27T11:37:40.411Z,34.37
2019-06-27T11:40:12.360Z,34.90
2019-06-27T11:42:40.414Z,34.83
2019-06-27T11:45:09.410Z,35.34
2019-06-27T11:47:40.525Z,35.48
2019-06-27T11:50:09.981Z,34.49
2019-06-27T11:52:39.428Z,34.35
2019-06-27T11:55:08.506Z,36.28
2019-06-27T11:57:37.606Z,34.94
2019-06-27T12:00:06.630Z,35.58
2019-06-27T12:02:35.654Z,35.75
2019-06-27T12:05:04.812Z,34.82
2019-06-27T12:07:33.904Z,35.31
2019-06-27T12:10:02.972Z,35.69
2019-06-27T12:12:32.011Z,33.33
2019-06-27T12:15:01.026Z,34.99
2019-06-27T12:17:31.629Z,33.86
2019-06-27T12:20:00.673Z,35.73
2019-06-27T12:22:29.661Z,34.73
2019-06-27T12:24:58.723Z,33.49
2019-06-27T12:27:27.767Z,35.28
2019-06-27T12:29:56.789Z,34.70
2019-06-27T12:32:25.824Z,32.75
2019-06-27T12:34:54.864Z,34.10
2019-06-27T12:37:26.453Z,35.67
2019-06-27T12:39:55.522Z,35.27
2019-06-27T12:42:32.518Z,35.48
2019-06-27T12:45:00.545Z,36.25
2019-06-27T12:47:29.632Z,36.56
2019-06-27T12:50:02.676Z,35.70
2019-06-27T12:52:29.471Z,35.92
2019-06-27T12:55:00.034Z,36.73
2019-06-27T12:57:29.140Z,36.59
2019-06-27T12:59:58.574Z,35.51
2019-06-27T13:02:27.641Z,34.74
2019-06-27T13:04:56.702Z,34.33
2019-06-27T13:07:25.674Z,35.70
2019-06-27T13:09:54.779Z,36.66
2019-06-27T13:12:25.636Z,36.14
2019-06-27T13:14:57.002Z,36.13
2019-06-27T13:17:25.992Z,35.77
2019-06-27T13:19:57.413Z,34.74
2019-06-27T13:22:26.496Z,34.47
2019-06-27T13:24:55.572Z,36.02
2019-06-27T13:27:24.829Z,33.72
2019-06-27T13:29:53.889Z,34.39
2019-06-27T13:32:25.371Z,33.63
2019-06-27T13:34:53.767Z,32.78
2019-06-27T13:37:22.816Z,33.32
2019-06-27T13:39:51.942Z,33.68
2019-06-27T13:42:20.973Z,33.27
2019-06-27T13:44:50.458Z,33.19
2019-06-27T13:47:20.403Z,32.56
2019-06-27T13:49:49.631Z,32.40
2019-06-27T13:52:18.669Z,33.95
2019-06-27T13:54:47.769Z,33.88
2019-06-27T13:57:22.057Z,32.69
2019-06-27T13:59:51.180Z,33.80
2019-06-27T14:02:20.228Z,34.31
2019-06-27T14:04:56.902Z,34.74
2019-06-27T14:07:21.772Z,35.06
2019-06-27T14:09:56.660Z,34.70
2019-06-27T14:12:23.375Z,34.10
2019-06-27T14:14:59.778Z,33.32
2019-06-27T14:17:24.360Z,33.29
2019-06-27T14:19:53.414Z,33.61
2019-06-27T14:22:32.867Z,33.03
2019-06-27T14:24:54.728Z,33.79
2019-06-27T14:27:23.850Z,34.39
2019-06-27T14:29:56.448Z,34.11
2019-06-27T14:32:24.826Z,33.06
2019-06-27T14:34:53.952Z,33.32
2019-06-27T14:37:23.110Z,34.18
2019-06-27T14:39:52.124Z,33.89
2019-06-27T14:42:21.240Z,33.64
2019-06-27T14:44:50.274Z,33.07
2019-06-27T14:47:19.431Z,31.94
2019-06-27T14:49:48.714Z,32.87
2019-06-27T14:52:17.832Z,32.97
2019-06-27T14:54:47.512Z,32.58
2019-06-27T14:57:16.642Z,32.79
2019-06-27T14:59:46.792Z,32.53
2019-06-27T15:02:17.530Z,32.08
2019-06-27T15:04:46.762Z,32.09
2019-06-27T15:07:16.334Z,31.27
2019-06-27T15:09:45.373Z,32.12
2019-06-27T15:12:14.434Z,31.86
2019-06-27T15:14:43.508Z,31.86
2019-06-27T15:17:12.675Z,32.13
2019-06-27T15:19:41.775Z,32.37
2019-06-27T15:22:13.176Z,31.85
2019-06-27T15:24:42.259Z,32.27
2019-06-27T15:27:11.370Z,32.06
2019-06-27T15:29:40.400Z,31.66
2019-06-27T15:32:09.634Z,31.93
2019-06-27T15:34:38.881Z,31.91
2019-06-27T15:37:07.945Z,32.16
2019-06-27T15:39:37.771Z,31.89
2019-06-27T15:42:06.904Z,31.63
2019-06-27T15:44:35.960Z,32.05
2019-06-27T15:47:05.052Z,32.14
2019-06-27T15:49:34.158Z,32.27
2019-06-27T15:52:03.212Z,32.05
2019-06-27T15:54:32.225Z,32.27
2019-06-27T15:57:01.283Z,31.88
2019-06-27T15:59:30.406Z,32.25
2019-06-27T16:01:59.524Z,31.95
2019-06-27T16:04:34.234Z,32.07
2019-06-27T16:07:01.118Z,31.84
2019-06-27T16:09:30.163Z,31.89
2019-06-27T16:11:59.240Z,31.88
2019-06-27T16:14:28.244Z,31.93
2019-06-27T16:16:57.287Z,31.85
2019-06-27T16:19:26.327Z,31.75
2019-06-27T16:21:55.478Z,31.97
2019-06-27T16:24:24.589Z,31.86
2019-06-27T16:26:53.592Z,31.62
2019-06-27T16:29:22.634Z,31.47
2019-06-27T16:31:51.668Z,31.26
2019-06-27T16:34:22.310Z,31.18
2019-06-27T16:36:51.398Z,31.49
2019-06-27T16:39:20.500Z,31.15
2019-06-27T16:41:50.207Z,31.04
2019-06-27T16:44:19.287Z,31.20
2019-06-27T16:46:48.315Z,31.22
2019-06-27T16:49:17.411Z,31.09
2019-06-27T16:51:46.436Z,31.07
2019-06-27T16:54:15.511Z,31.10
2019-06-27T16:56:44.526Z,31.16
2019-06-27T16:59:13.595Z,30.97
2019-06-27T17:01:42.622Z,31.08
2019-06-27T17:04:11.700Z,30.98
2019-06-27T17:06:42.403Z,30.74
2019-06-27T17:09:11.556Z,30.56
2019-06-27T17:11:40.558Z,30.48
2019-06-27T17:14:09.670Z,30.54
2019-06-27T17:16:38.750Z,30.29
2019-06-27T17:19:07.903Z,30.41
2019-06-27T17:21:36.954Z,30.51
2019-06-27T17:24:06.536Z,30.60
2019-06-27T17:26:36.500Z,30.74
2019-06-27T17:29:05.676Z,30.60
2019-06-27T17:31:34.729Z,30.47
2019-06-27T17:34:03.816Z,30.35
2019-06-27T17:36:32.903Z,30.17
2019-06-27T17:39:02.170Z,29.99
2019-06-27T17:41:31.605Z,29.75
2019-06-27T17:44:00.664Z,29.96
2019-06-27T17:46:29.843Z,29.67
2019-06-27T17:49:00.762Z,29.75
2019-06-27T17:51:29.846Z,29.54
2019-06-27T17:53:58.915Z,29.47
2019-06-27T17:56:28.018Z,29.51
2019-06-27T17:58:57.484Z,29.39
2019-06-27T18:01:26.591Z,29.24
2019-06-27T18:03:55.673Z,29.04
2019-06-27T18:06:24.728Z,29.10
2019-06-27T18:08:53.797Z,29.07
2019-06-27T18:11:22.819Z,28.99
2019-06-27T18:13:51.868Z,28.67
2019-06-27T18:16:20.965Z,28.77
2019-06-27T18:18:51.202Z,28.70
2019-06-27T18:21:20.298Z,28.61
2019-06-27T18:23:49.652Z,28.46
2019-06-27T18:26:21.090Z,28.53
2019-06-27T18:28:50.155Z,28.38
2019-06-27T18:31:19.259Z,28.36
2019-06-27T18:33:48.312Z,28.31
2019-06-27T18:36:17.407Z,28.11
2019-06-27T18:38:46.450Z,28.00
2019-06-27T18:41:15.510Z,28.01
2019-06-27T18:43:44.604Z,27.95
2019-06-27T18:46:13.709Z,27.71
2019-06-27T18:48:42.960Z,27.69
2019-06-27T18:51:12.166Z,27.63
2019-06-27T18:53:41.173Z,27.56
2019-06-27T18:56:10.286Z,27.38
2019-06-27T18:58:40.214Z,27.39
2019-06-27T19:01:09.292Z,27.49
2019-06-27T19:03:38.650Z,27.22
2019-06-27T19:06:07.862Z,27.24
2019-06-27T19:08:37.222Z,26.98
2019-06-27T19:11:06.313Z,26.90
2019-06-27T19:13:35.385Z,26.95
2019-06-27T19:16:04.473Z,26.85
2019-06-27T19:18:44.798Z,26.75
2019-06-27T19:21:18.691Z,26.68
2019-06-27T19:24:05.143Z,26.56
2019-06-27T19:26:35.975Z,26.44
2019-06-27T19:29:05.068Z,26.31
2019-06-27T19:31:34.129Z,26.25
2019-06-27T19:34:03.246Z,26.19
2019-06-27T19:36:32.328Z,26.11
2019-06-27T19:39:01.362Z,26.10
2019-06-27T19:41:30.428Z,25.93
2019-06-27T19:43:59.518Z,25.96
2019-06-27T19:46:28.576Z,25.87
2019-06-27T19:48:57.721Z,25.89
2019-06-27T19:51:27.707Z,25.77
2019-06-27T19:53:58.076Z,25.75
2019-06-27T19:56:27.577Z,25.62
2019-06-27T19:58:57.200Z,25.51
2019-06-27T20:01:26.240Z,25.58
2019-06-27T20:03:55.289Z,25.47
2019-06-27T20:06:24.763Z,25.47
2019-06-27T20:08:53.823Z,25.36
2019-06-27T20:11:22.903Z,25.36
2019-06-27T20:13:51.926Z,25.20
2019-06-27T20:16:20.994Z,25.21
2019-06-27T20:18:50.034Z,25.13
2019-06-27T20:21:19.072Z,25.11
2019-06-27T20:23:48.090Z,24.89
2019-06-27T20:26:17.592Z,24.85
2019-06-27T20:28:46.642Z,24.85
2019-06-27T20:31:15.672Z,24.75
2019-06-27T20:33:44.728Z,24.66
2019-06-27T20:36:13.724Z,24.67
2019-06-27T20:38:42.827Z,24.69
2019-06-27T20:41:11.903Z,24.68
2019-06-27T20:43:42.829Z,24.52
2019-06-27T20:46:11.913Z,24.50
2019-06-27T20:48:41.021Z,24.31
2019-06-27T20:51:10.029Z,24.07
2019-06-27T20:53:39.121Z,23.97
2019-06-27T20:56:08.171Z,23.59
2019-06-27T20:58:39.553Z,23.56
2019-06-27T21:01:09.054Z,23.58
2019-06-27T21:03:40.060Z,23.40
2019-06-27T21:06:09.070Z,23.27
2019-06-27T21:08:50.779Z,23.10
2019-06-27T21:13:38.030Z,23.08
2019-06-27T21:16:07.105Z,23.06
2019-06-27T21:18:36.199Z,23.24
2019-06-27T21:21:05.273Z,23.21
2019-06-27T21:23:34.322Z,23.29
2019-06-27T21:26:03.385Z,23.20
2019-06-27T21:28:32.417Z,23.11
2019-06-27T21:31:01.470Z,23.11
2019-06-27T21:33:30.523Z,23.04
2019-06-27T21:35:59.540Z,23.04
2019-06-27T21:38:28.868Z,22.99
2019-06-27T21:40:59.416Z,22.97
2019-06-27T21:43:28.578Z,22.88
2019-06-27T21:45:57.675Z,22.84
2019-06-27T21:48:26.743Z,22.72
2019-06-27T21:50:55.794Z,22.73
2019-06-27T21:53:24.859Z,22.67
2019-06-27T21:55:53.903Z,22.67
2019-06-27T21:58:24.670Z,22.63
2019-06-27T22:00:55.942Z,22.55
2019-06-27T22:03:24.986Z,22.67
2019-06-27T22:05:54.068Z,22.52
2019-06-27T22:08:25.429Z,22.55
2019-06-27T22:10:55.892Z,22.43
2019-06-27T22:13:24.922Z,22.42
2019-06-27T22:15:54.722Z,22.42
2019-06-27T22:18:23.995Z,22.40
2019-06-27T22:20:52.986Z,22.29
2019-06-27T22:23:22.135Z,22.14
2019-06-27T22:25:51.205Z,21.68
2019-06-27T22:28:20.289Z,21.46
2019-06-27T22:30:49.371Z,21.50
2019-06-27T22:33:20.745Z,21.57
2019-06-27T22:35:49.839Z,21.49
2019-06-27T22:38:36.638Z,21.17
2019-06-27T22:41:29.666Z,21.03
2019-06-27T22:44:16.292Z,20.87
2019-06-27T22:47:03.196Z,20.64
2019-06-27T22:49:31.488Z,20.36
2019-06-27T22:52:31.626Z,20.34
2019-06-27T22:55:02.069Z,20.21
2019-06-27T22:57:32.865Z,20.30
2019-06-27T23:00:01.953Z,20.25
2019-06-27T23:02:30.974Z,20.25
2019-06-27T23:05:02.254Z,20.15
2019-06-27T23:07:31.275Z,20.13
2019-06-27T23:10:00.356Z,19.85
2019-06-27T23:12:29.407Z,19.87
2019-06-27T23:14:58.450Z,19.41
2019-06-27T23:17:27.494Z,19.25
2019-06-27T23:19:56.525Z,19.24
2019-06-27T23:22:25.548Z,19.05
2019-06-27T23:24:54.629Z,18.90
2019-06-27T23:27:23.638Z,18.96
2019-06-27T23:29:52.722Z,18.92
2019-06-27T23:32:21.745Z,18.82
2019-06-27T23:34:50.838Z,18.69
2019-06-27T23:37:19.963Z,18.51
2019-06-27T23:39:49.000Z,18.26
2019-06-27T23:42:18.022Z,18.32
2019-06-27T23:44:47.084Z,18.20
2019-06-27T23:47:16.191Z,18.01
2019-06-27T23:49:46.134Z,17.91
2019-06-27T23:52:15.183Z,18.03
2019-06-27T23:54:44.241Z,17.96
2019-06-27T23:57:13.374Z,18.08
2019-06-27T23:59:42.402Z,18.05
